sensor_id;sensor_type;location;lat;lon;timestamp;temperature;humidity
30250;DHT22;17064;47.974;13.826;2024-03-29T00:01:14;5.20;99.90
30250;DHT22;17064;47.974;13.826;2024-03-29T00:06:15;5.20;99.90
30250;DHT22;17064;47.974;13.826;2024-03-29T00:11:16;5.20;99.90
30250;DHT22;17064;47.974;13.826;2024-03-29T00:16:16;5.10;99.90
30250;DHT22;17064;47.974;13.826;2024-03-29T00:21:17;5.20;99.90
30250;DHT22;17064;47.974;13.826;2024-03-29T00:26:18;5.10;99.90
30250;DHT22;17064;47.974;13.826;2024-03-29T00:31:19;5.20;99.90
30250;DHT22;17064;47.974;13.826;2024-03-29T00:36:19;5.20;99.90
30250;DHT22;17064;47.974;13.826;2024-03-29T00:41:20;5.10;99.90
30250;DHT22;17064;47.974;13.826;2024-03-29T00:46:20;5.20;99.90
30250;DHT22;17064;47.974;13.826;2024-03-29T00:51:21;5.20;99.90
30250;DHT22;17064;47.974;13.826;2024-03-29T00:56:21;5.10;99.90
30250;DHT22;17064;47.974;13.826;2024-03-29T01:01:22;4.90;99.90
30250;DHT22;17064;47.974;13.826;2024-03-29T01:06:22;4.70;99.90
30250;DHT22;17064;47.974;13.826;2024-03-29T01:11:23;4.50;99.90
30250;DHT22;17064;47.974;13.826;2024-03-29T01:16:24;4.40;99.90
30250;DHT22;17064;47.974;13.826;2024-03-29T01:21:25;4.30;99.90
30250;DHT22;17064;47.974;13.826;2024-03-29T01:26:27;4.40;99.90
30250;DHT22;17064;47.974;13.826;2024-03-29T01:31:27;4.50;99.90
30250;DHT22;17064;47.974;13.826;2024-03-29T01:36:28;4.40;99.90
30250;DHT22;17064;47.974;13.826;2024-03-29T01:41:29;4.40;99.90
30250;DHT22;17064;47.974;13.826;2024-03-29T01:46:29;4.40;99.90
30250;DHT22;17064;47.974;13.826;2024-03-29T01:51:30;4.40;99.90
30250;DHT22;17064;47.974;13.826;2024-03-29T01:56:31;4.50;99.90
30250;DHT22;17064;47.974;13.826;2024-03-29T02:01:31;4.60;99.90
30250;DHT22;17064;47.974;13.826;2024-03-29T02:06:32;4.80;99.90
30250;DHT22;17064;47.974;13.826;2024-03-29T02:11:33;4.80;99.90
30250;DHT22;17064;47.974;13.826;2024-03-29T02:16:35;4.80;99.90
30250;DHT22;17064;47.974;13.826;2024-03-29T02:21:43;4.80;99.90
30250;DHT22;17064;47.974;13.826;2024-03-29T02:26:46;4.90;99.90
30250;DHT22;17064;47.974;13.826;2024-03-29T02:31:47;4.90;99.90
30250;DHT22;17064;47.974;13.826;2024-03-29T02:36:48;5.00;99.90
30250;DHT22;17064;47.974;13.826;2024-03-29T02:41:48;4.90;99.90
30250;DHT22;17064;47.974;13.826;2024-03-29T02:46:49;4.80;99.90
30250;DHT22;17064;47.974;13.826;2024-03-29T02:51:49;4.80;99.90
30250;DHT22;17064;47.974;13.826;2024-03-29T02:56:53;4.70;99.90
30250;DHT22;17064;47.974;13.826;2024-03-29T03:01:53;4.60;99.90
30250;DHT22;17064;47.974;13.826;2024-03-29T03:06:54;4.40;99.90
30250;DHT22;17064;47.974;13.826;2024-03-29T03:11:56;4.30;99.90
30250;DHT22;17064;47.974;13.826;2024-03-29T03:16:56;4.20;99.90
30250;DHT22;17064;47.974;13.826;2024-03-29T03:21:57;4.20;99.90
30250;DHT22;17064;47.974;13.826;2024-03-29T03:26:58;4.10;99.90
30250;DHT22;17064;47.974;13.826;2024-03-29T03:31:58;4.00;99.90
30250;DHT22;17064;47.974;13.826;2024-03-29T03:36:59;3.80;99.90
30250;DHT22;17064;47.974;13.826;2024-03-29T03:41:59;3.60;99.90
30250;DHT22;17064;47.974;13.826;2024-03-29T03:47:01;3.30;99.90
30250;DHT22;17064;47.974;13.826;2024-03-29T03:52:01;3.10;99.90
30250;DHT22;17064;47.974;13.826;2024-03-29T03:57:03;3.00;99.90
30250;DHT22;17064;47.974;13.826;2024-03-29T04:02:04;2.80;99.90
30250;DHT22;17064;47.974;13.826;2024-03-29T04:07:05;2.70;99.90
30250;DHT22;17064;47.974;13.826;2024-03-29T04:12:05;2.60;99.90
30250;DHT22;17064;47.974;13.826;2024-03-29T04:17:06;2.50;99.90
30250;DHT22;17064;47.974;13.826;2024-03-29T04:22:06;2.40;99.90
30250;DHT22;17064;47.974;13.826;2024-03-29T04:27:07;2.30;99.90
30250;DHT22;17064;47.974;13.826;2024-03-29T04:32:07;2.20;99.90
30250;DHT22;17064;47.974;13.826;2024-03-29T04:37:08;2.10;99.90
30250;DHT22;17064;47.974;13.826;2024-03-29T04:42:09;2.00;99.90
30250;DHT22;17064;47.974;13.826;2024-03-29T04:47:10;1.90;99.90
30250;DHT22;17064;47.974;13.826;2024-03-29T04:52:10;1.80;99.90
30250;DHT22;17064;47.974;13.826;2024-03-29T04:57:11;1.80;99.90
30250;DHT22;17064;47.974;13.826;2024-03-29T05:02:13;1.60;99.90
30250;DHT22;17064;47.974;13.826;2024-03-29T05:07:13;1.50;99.90
30250;DHT22;17064;47.974;13.826;2024-03-29T05:12:15;1.40;99.90
30250;DHT22;17064;47.974;13.826;2024-03-29T05:17:15;1.40;99.90
30250;DHT22;17064;47.974;13.826;2024-03-29T05:22:17;1.40;99.90
30250;DHT22;17064;47.974;13.826;2024-03-29T05:27:17;1.50;99.90
30250;DHT22;17064;47.974;13.826;2024-03-29T05:32:18;1.50;99.90
30250;DHT22;17064;47.974;13.826;2024-03-29T05:37:19;1.60;99.90
30250;DHT22;17064;47.974;13.826;2024-03-29T05:42:19;1.70;99.90
30250;DHT22;17064;47.974;13.826;2024-03-29T05:47:20;1.90;99.90
30250;DHT22;17064;47.974;13.826;2024-03-29T05:52:20;2.00;99.90
30250;DHT22;17064;47.974;13.826;2024-03-29T05:57:23;2.20;99.90
30250;DHT22;17064;47.974;13.826;2024-03-29T06:02:30;2.30;99.90
30250;DHT22;17064;47.974;13.826;2024-03-29T06:07:30;2.40;99.90
30250;DHT22;17064;47.974;13.826;2024-03-29T06:12:33;2.60;99.90
30250;DHT22;17064;47.974;13.826;2024-03-29T06:17:35;2.70;99.90
30250;DHT22;17064;47.974;13.826;2024-03-29T06:22:37;2.80;99.90
30250;DHT22;17064;47.974;13.826;2024-03-29T06:27:37;2.90;99.90
30250;DHT22;17064;47.974;13.826;2024-03-29T06:32:38;3.10;99.90
30250;DHT22;17064;47.974;13.826;2024-03-29T06:37:39;3.30;99.90
30250;DHT22;17064;47.974;13.826;2024-03-29T06:42:40;3.50;99.90
30250;DHT22;17064;47.974;13.826;2024-03-29T06:47:41;3.70;99.90
30250;DHT22;17064;47.974;13.826;2024-03-29T06:52:41;3.90;99.90
30250;DHT22;17064;47.974;13.826;2024-03-29T06:57:42;4.30;99.90
30250;DHT22;17064;47.974;13.826;2024-03-29T07:02:44;4.50;99.90
30250;DHT22;17064;47.974;13.826;2024-03-29T07:07:45;4.80;99.90
30250;DHT22;17064;47.974;13.826;2024-03-29T07:12:47;4.90;99.90
30250;DHT22;17064;47.974;13.826;2024-03-29T07:17:48;5.00;99.90
30250;DHT22;17064;47.974;13.826;2024-03-29T07:22:51;5.30;99.90
30250;DHT22;17064;47.974;13.826;2024-03-29T07:27:51;5.50;99.90
30250;DHT22;17064;47.974;13.826;2024-03-29T07:32:52;5.90;99.90
30250;DHT22;17064;47.974;13.826;2024-03-29T07:37:53;6.30;99.90
30250;DHT22;17064;47.974;13.826;2024-03-29T07:42:54;6.70;99.90
30250;DHT22;17064;47.974;13.826;2024-03-29T07:47:54;7.10;99.90
30250;DHT22;17064;47.974;13.826;2024-03-29T07:52:55;7.40;99.90
30250;DHT22;17064;47.974;13.826;2024-03-29T07:57:56;7.70;99.90
30250;DHT22;17064;47.974;13.826;2024-03-29T08:02:56;8.10;99.90
30250;DHT22;17064;47.974;13.826;2024-03-29T08:07:57;8.50;99.90
30250;DHT22;17064;47.974;13.826;2024-03-29T08:12:58;8.90;99.90
30250;DHT22;17064;47.974;13.826;2024-03-29T08:17:58;9.10;99.90
30250;DHT22;17064;47.974;13.826;2024-03-29T08:22:59;9.20;99.90
30250;DHT22;17064;47.974;13.826;2024-03-29T08:28:00;9.50;99.90
30250;DHT22;17064;47.974;13.826;2024-03-29T08:33:01;9.80;99.90
30250;DHT22;17064;47.974;13.826;2024-03-29T08:38:02;10.20;99.90
30250;DHT22;17064;47.974;13.826;2024-03-29T08:43:03;10.60;99.90
30250;DHT22;17064;47.974;13.826;2024-03-29T08:48:04;10.90;99.90
30250;DHT22;17064;47.974;13.826;2024-03-29T08:53:05;11.20;99.90
30250;DHT22;17064;47.974;13.826;2024-03-29T08:58:06;11.60;99.90
30250;DHT22;17064;47.974;13.826;2024-03-29T09:03:07;11.70;99.90
30250;DHT22;17064;47.974;13.826;2024-03-29T09:08:07;12.00;99.90
30250;DHT22;17064;47.974;13.826;2024-03-29T09:13:08;12.50;99.90
30250;DHT22;17064;47.974;13.826;2024-03-29T09:18:09;12.70;99.90
30250;DHT22;17064;47.974;13.826;2024-03-29T09:23:13;13.00;99.90
30250;DHT22;17064;47.974;13.826;2024-03-29T09:28:17;13.30;99.90
30250;DHT22;17064;47.974;13.826;2024-03-29T09:33:17;13.30;99.90
30250;DHT22;17064;47.974;13.826;2024-03-29T09:38:18;13.40;99.90
30250;DHT22;17064;47.974;13.826;2024-03-29T09:43:19;13.30;99.90
30250;DHT22;17064;47.974;13.826;2024-03-29T09:48:20;13.30;99.90
30250;DHT22;17064;47.974;13.826;2024-03-29T09:53:22;13.30;99.90
30250;DHT22;17064;47.974;13.826;2024-03-29T09:58:23;13.10;99.90
30250;DHT22;17064;47.974;13.826;2024-03-29T10:03:27;13.20;99.90
30250;DHT22;17064;47.974;13.826;2024-03-29T10:08:31;13.30;99.90
30250;DHT22;17064;47.974;13.826;2024-03-29T10:13:31;13.30;99.90
30250;DHT22;17064;47.974;13.826;2024-03-29T10:18:32;13.30;99.90
30250;DHT22;17064;47.974;13.826;2024-03-29T10:23:33;13.30;99.90
30250;DHT22;17064;47.974;13.826;2024-03-29T10:28:36;13.30;99.90
30250;DHT22;17064;47.974;13.826;2024-03-29T10:33:37;13.40;99.90
30250;DHT22;17064;47.974;13.826;2024-03-29T10:38:38;13.50;99.90
30250;DHT22;17064;47.974;13.826;2024-03-29T10:43:38;13.70;99.90
30250;DHT22;17064;47.974;13.826;2024-03-29T10:48:40;13.70;99.90
30250;DHT22;17064;47.974;13.826;2024-03-29T10:53:42;13.90;99.90
30250;DHT22;17064;47.974;13.826;2024-03-29T10:58:44;14.00;99.90
30250;DHT22;17064;47.974;13.826;2024-03-29T11:03:54;14.00;99.90
30250;DHT22;17064;47.974;13.826;2024-03-29T11:08:54;14.00;99.90
30250;DHT22;17064;47.974;13.826;2024-03-29T11:13:58;14.10;99.90
30250;DHT22;17064;47.974;13.826;2024-03-29T11:19:02;14.40;99.90
30250;DHT22;17064;47.974;13.826;2024-03-29T11:24:05;14.90;99.90
30250;DHT22;17064;47.974;13.826;2024-03-29T11:29:06;15.40;99.90
30250;DHT22;17064;47.974;13.826;2024-03-29T11:34:08;15.60;99.90
30250;DHT22;17064;47.974;13.826;2024-03-29T11:39:09;15.90;99.90
30250;DHT22;17064;47.974;13.826;2024-03-29T11:44:19;16.60;99.90
30250;DHT22;17064;47.974;13.826;2024-03-29T11:49:24;17.60;99.90
30250;DHT22;17064;47.974;13.826;2024-03-29T11:54:25;18.20;99.90
30250;DHT22;17064;47.974;13.826;2024-03-29T11:59:26;18.40;99.90
30250;DHT22;17064;47.974;13.826;2024-03-29T12:04:27;18.30;99.90
30250;DHT22;17064;47.974;13.826;2024-03-29T12:09:29;18.40;99.90
30250;DHT22;17064;47.974;13.826;2024-03-29T12:14:30;18.90;99.90
30250;DHT22;17064;47.974;13.826;2024-03-29T12:19:35;19.40;99.90
30250;DHT22;17064;47.974;13.826;2024-03-29T12:24:38;19.70;99.90
30250;DHT22;17064;47.974;13.826;2024-03-29T12:29:39;20.00;99.90
30250;DHT22;17064;47.974;13.826;2024-03-29T12:34:39;19.90;97.80
30250;DHT22;17064;47.974;13.826;2024-03-29T12:45:18;20.20;99.70
30250;DHT22;17064;47.974;13.826;2024-03-29T12:50:23;20.70;96.70
30250;DHT22;17064;47.974;13.826;2024-03-29T12:55:24;21.00;97.10
30250;DHT22;17064;47.974;13.826;2024-03-29T13:00:28;21.20;94.30
30250;DHT22;17064;47.974;13.826;2024-03-29T13:05:29;21.30;94.40
30250;DHT22;17064;47.974;13.826;2024-03-29T13:10:34;21.60;94.50
30250;DHT22;17064;47.974;13.826;2024-03-29T13:15:36;22.20;91.20
30250;DHT22;17064;47.974;13.826;2024-03-29T13:20:36;22.20;89.50
30250;DHT22;17064;47.974;13.826;2024-03-29T13:25:41;22.00;91.80
30250;DHT22;17064;47.974;13.826;2024-03-29T13:30:41;22.00;91.00
30250;DHT22;17064;47.974;13.826;2024-03-29T13:35:46;22.20;87.80
30250;DHT22;17064;47.974;13.826;2024-03-29T13:40:46;22.50;88.00
30250;DHT22;17064;47.974;13.826;2024-03-29T13:45:47;22.80;87.90
30250;DHT22;17064;47.974;13.826;2024-03-29T13:50:48;23.20;83.20
30250;DHT22;17064;47.974;13.826;2024-03-29T13:55:50;23.20;79.20
30250;DHT22;17064;47.974;13.826;2024-03-29T14:00:52;23.30;81.10
30250;DHT22;17064;47.974;13.826;2024-03-29T14:05:54;23.40;80.00
30250;DHT22;17064;47.974;13.826;2024-03-29T14:10:58;23.60;73.80
30250;DHT22;17064;47.974;13.826;2024-03-29T14:15:59;24.00;76.40
30250;DHT22;17064;47.974;13.826;2024-03-29T14:21:00;24.20;75.50
30250;DHT22;17064;47.974;13.826;2024-03-29T14:26:01;24.30;68.50
30250;DHT22;17064;47.974;13.826;2024-03-29T14:31:02;24.10;70.00
30250;DHT22;17064;47.974;13.826;2024-03-29T14:36:03;23.50;70.10
30250;DHT22;17064;47.974;13.826;2024-03-29T14:41:03;22.90;73.10
30250;DHT22;17064;47.974;13.826;2024-03-29T14:46:04;22.50;72.40
30250;DHT22;17064;47.974;13.826;2024-03-29T14:51:05;22.00;77.00
30250;DHT22;17064;47.974;13.826;2024-03-29T14:56:05;21.50;79.90
30250;DHT22;17064;47.974;13.826;2024-03-29T15:01:06;21.10;82.20
30250;DHT22;17064;47.974;13.826;2024-03-29T15:06:07;20.60;84.10
30250;DHT22;17064;47.974;13.826;2024-03-29T15:11:07;20.30;82.90
30250;DHT22;17064;47.974;13.826;2024-03-29T15:16:08;20.10;85.60
30250;DHT22;17064;47.974;13.826;2024-03-29T15:21:09;20.10;87.10
30250;DHT22;17064;47.974;13.826;2024-03-29T15:26:10;20.20;89.10
30250;DHT22;17064;47.974;13.826;2024-03-29T15:31:11;20.10;90.70
30250;DHT22;17064;47.974;13.826;2024-03-29T15:36:12;20.00;91.10
30250;DHT22;17064;47.974;13.826;2024-03-29T15:41:13;19.90;92.00
30250;DHT22;17064;47.974;13.826;2024-03-29T15:46:13;19.70;92.40
30250;DHT22;17064;47.974;13.826;2024-03-29T15:51:14;19.60;90.50
30250;DHT22;17064;47.974;13.826;2024-03-29T15:56:16;19.40;76.60
30250;DHT22;17064;47.974;13.826;2024-03-29T16:01:17;19.50;63.20
30250;DHT22;17064;47.974;13.826;2024-03-29T16:06:17;19.70;58.30
30250;DHT22;17064;47.974;13.826;2024-03-29T16:11:18;19.50;57.60
30250;DHT22;17064;47.974;13.826;2024-03-29T16:16:19;19.40;57.50
30250;DHT22;17064;47.974;13.826;2024-03-29T16:21:20;19.30;57.30
30250;DHT22;17064;47.974;13.826;2024-03-29T16:26:20;19.30;55.90
30250;DHT22;17064;47.974;13.826;2024-03-29T16:31:21;19.30;55.30
30250;DHT22;17064;47.974;13.826;2024-03-29T16:36:21;19.20;56.60
30250;DHT22;17064;47.974;13.826;2024-03-29T16:41:22;19.10;54.20
30250;DHT22;17064;47.974;13.826;2024-03-29T16:46:23;19.10;53.60
30250;DHT22;17064;47.974;13.826;2024-03-29T16:51:23;18.90;53.30
30250;DHT22;17064;47.974;13.826;2024-03-29T16:56:24;18.70;54.10
30250;DHT22;17064;47.974;13.826;2024-03-29T17:01:24;18.60;54.50
30250;DHT22;17064;47.974;13.826;2024-03-29T17:06:25;18.30;56.30
30250;DHT22;17064;47.974;13.826;2024-03-29T17:11:26;18.00;54.70
30250;DHT22;17064;47.974;13.826;2024-03-29T17:16:26;18.00;54.90
30250;DHT22;17064;47.974;13.826;2024-03-29T17:21:27;17.80;55.50
30250;DHT22;17064;47.974;13.826;2024-03-29T17:26:28;17.60;56.10
30250;DHT22;17064;47.974;13.826;2024-03-29T17:31:28;17.30;57.40
30250;DHT22;17064;47.974;13.826;2024-03-29T17:36:29;16.90;58.20
30250;DHT22;17064;47.974;13.826;2024-03-29T17:41:29;16.60;60.10
30250;DHT22;17064;47.974;13.826;2024-03-29T17:46:30;16.20;61.50
30250;DHT22;17064;47.974;13.826;2024-03-29T17:51:31;16.00;62.30
30250;DHT22;17064;47.974;13.826;2024-03-29T17:56:31;15.70;62.20
30250;DHT22;17064;47.974;13.826;2024-03-29T18:01:32;15.50;62.80
30250;DHT22;17064;47.974;13.826;2024-03-29T18:06:32;15.40;63.00
30250;DHT22;17064;47.974;13.826;2024-03-29T18:11:33;15.30;62.90
30250;DHT22;17064;47.974;13.826;2024-03-29T18:16:33;15.30;61.90
30250;DHT22;17064;47.974;13.826;2024-03-29T18:21:34;15.20;62.50
30250;DHT22;17064;47.974;13.826;2024-03-29T18:26:35;15.10;63.10
30250;DHT22;17064;47.974;13.826;2024-03-29T18:31:36;15.00;64.20
30250;DHT22;17064;47.974;13.826;2024-03-29T18:36:36;14.90;65.50
30250;DHT22;17064;47.974;13.826;2024-03-29T18:41:37;14.70;68.40
30250;DHT22;17064;47.974;13.826;2024-03-29T18:46:38;14.50;66.40
30250;DHT22;17064;47.974;13.826;2024-03-29T18:51:38;14.40;67.00
30250;DHT22;17064;47.974;13.826;2024-03-29T18:56:39;14.40;66.20
30250;DHT22;17064;47.974;13.826;2024-03-29T19:01:40;14.50;64.20
30250;DHT22;17064;47.974;13.826;2024-03-29T19:06:40;14.50;64.00
30250;DHT22;17064;47.974;13.826;2024-03-29T19:11:41;14.50;64.90
30250;DHT22;17064;47.974;13.826;2024-03-29T19:16:42;14.50;65.40
30250;DHT22;17064;47.974;13.826;2024-03-29T19:21:42;14.30;66.00
30250;DHT22;17064;47.974;13.826;2024-03-29T19:26:45;14.20;66.40
30250;DHT22;17064;47.974;13.826;2024-03-29T19:31:46;14.00;67.00
30250;DHT22;17064;47.974;13.826;2024-03-29T19:36:49;13.90;68.50
30250;DHT22;17064;47.974;13.826;2024-03-29T19:41:53;13.70;70.10
30250;DHT22;17064;47.974;13.826;2024-03-29T19:46:54;13.60;71.40
30250;DHT22;17064;47.974;13.826;2024-03-29T19:51:54;13.50;73.10
30250;DHT22;17064;47.974;13.826;2024-03-29T19:56:55;13.50;74.30
30250;DHT22;17064;47.974;13.826;2024-03-29T20:01:56;13.40;73.30
30250;DHT22;17064;47.974;13.826;2024-03-29T20:06:56;13.40;72.50
30250;DHT22;17064;47.974;13.826;2024-03-29T20:11:57;13.30;75.90
30250;DHT22;17064;47.974;13.826;2024-03-29T20:16:58;13.20;76.20
30250;DHT22;17064;47.974;13.826;2024-03-29T20:21:58;13.10;78.10
30250;DHT22;17064;47.974;13.826;2024-03-29T20:26:59;12.90;82.30
30250;DHT22;17064;47.974;13.826;2024-03-29T20:32:00;12.70;85.20
30250;DHT22;17064;47.974;13.826;2024-03-29T20:37:06;12.40;87.70
30250;DHT22;17064;47.974;13.826;2024-03-29T20:42:08;12.30;87.30
30250;DHT22;17064;47.974;13.826;2024-03-29T20:47:10;12.20;87.20
30250;DHT22;17064;47.974;13.826;2024-03-29T20:52:11;12.10;90.80
30250;DHT22;17064;47.974;13.826;2024-03-29T20:57:14;11.90;94.50
30250;DHT22;17064;47.974;13.826;2024-03-29T21:02:15;11.80;94.80
30250;DHT22;17064;47.974;13.826;2024-03-29T21:07:34;11.80;94.90
30250;DHT22;17064;47.974;13.826;2024-03-29T21:12:35;11.80;95.80
30250;DHT22;17064;47.974;13.826;2024-03-29T21:17:36;11.80;98.90
30250;DHT22;17064;47.974;13.826;2024-03-29T21:22:41;11.70;99.90
30250;DHT22;17064;47.974;13.826;2024-03-29T21:27:42;11.70;99.90
30250;DHT22;17064;47.974;13.826;2024-03-29T21:32:46;11.70;99.90
30250;DHT22;17064;47.974;13.826;2024-03-29T21:37:46;11.60;99.90
30250;DHT22;17064;47.974;13.826;2024-03-29T21:42:47;11.60;99.90
30250;DHT22;17064;47.974;13.826;2024-03-29T21:47:48;11.50;99.90
30250;DHT22;17064;47.974;13.826;2024-03-29T21:52:49;11.50;99.90
30250;DHT22;17064;47.974;13.826;2024-03-29T21:57:49;11.40;99.90
30250;DHT22;17064;47.974;13.826;2024-03-29T22:02:53;11.30;99.90
30250;DHT22;17064;47.974;13.826;2024-03-29T22:07:53;11.30;99.90
30250;DHT22;17064;47.974;13.826;2024-03-29T22:12:54;11.20;99.90
30250;DHT22;17064;47.974;13.826;2024-03-29T22:17:54;11.20;99.90
30250;DHT22;17064;47.974;13.826;2024-03-29T22:22:55;11.10;99.90
30250;DHT22;17064;47.974;13.826;2024-03-29T22:27:56;11.00;99.90
30250;DHT22;17064;47.974;13.826;2024-03-29T22:32:57;10.90;99.90
30250;DHT22;17064;47.974;13.826;2024-03-29T22:37:59;10.80;99.90
30250;DHT22;17064;47.974;13.826;2024-03-29T22:43:05;10.80;99.90
30250;DHT22;17064;47.974;13.826;2024-03-29T22:48:19;10.80;99.90
30250;DHT22;17064;47.974;13.826;2024-03-29T22:53:23;10.80;99.90
30250;DHT22;17064;47.974;13.826;2024-03-29T22:58:23;10.80;99.90
30250;DHT22;17064;47.974;13.826;2024-03-29T23:03:24;10.70;99.90
30250;DHT22;17064;47.974;13.826;2024-03-29T23:08:24;10.70;99.90
30250;DHT22;17064;47.974;13.826;2024-03-29T23:13:25;10.60;99.90
30250;DHT22;17064;47.974;13.826;2024-03-29T23:18:25;10.60;99.90
30250;DHT22;17064;47.974;13.826;2024-03-29T23:23:26;10.60;99.90
30250;DHT22;17064;47.974;13.826;2024-03-29T23:28:26;10.60;99.90
30250;DHT22;17064;47.974;13.826;2024-03-29T23:33:27;10.60;99.90
30250;DHT22;17064;47.974;13.826;2024-03-29T23:38:28;10.50;99.90
30250;DHT22;17064;47.974;13.826;2024-03-29T23:43:29;10.50;99.90
30250;DHT22;17064;47.974;13.826;2024-03-29T23:48:29;10.40;99.90
30250;DHT22;17064;47.974;13.826;2024-03-29T23:53:30;10.50;99.90
30250;DHT22;17064;47.974;13.826;2024-03-29T23:58:31;10.50;99.90
